createdAt,value
2023-10-03T00:01:05.283Z,76.09
2023-10-03T00:03:44.732Z,76.07
2023-10-03T00:06:16.414Z,76.02
2023-10-03T00:08:47.932Z,76.18
2023-10-03T00:11:23.645Z,76.17
2023-10-03T00:13:55.251Z,76.54
2023-10-03T00:16:27.060Z,76.29
2023-10-03T00:18:58.358Z,76.27
2023-10-03T00:21:29.704Z,76.11
2023-10-03T00:24:02.298Z,76.29
2023-10-03T00:26:34.470Z,76.27
2023-10-03T00:29:10.973Z,76.40
2023-10-03T00:31:42.530Z,76.51
2023-10-03T00:34:15.869Z,76.34
2023-10-03T00:36:50.302Z,76.28
2023-10-03T00:39:23.308Z,76.30
2023-10-03T00:41:54.670Z,76.37
2023-10-03T00:44:27.450Z,76.34
2023-10-03T00:46:57.932Z,76.44
2023-10-03T00:49:30.246Z,76.38
2023-10-03T00:52:02.152Z,76.34
2023-10-03T00:54:33.804Z,76.18
2023-10-03T00:57:06.546Z,76.15
2023-10-03T00:59:39.558Z,76.08
2023-10-03T01:02:11.558Z,76.06
2023-10-03T01:04:42.971Z,76.19
2023-10-03T01:07:14.809Z,75.92
2023-10-03T01:09:46.759Z,76.07
2023-10-03T01:12:19.848Z,76.09
2023-10-03T01:14:51.959Z,76.07
2023-10-03T01:17:24.853Z,76.05
2023-10-03T01:19:57.420Z,76.03
2023-10-03T01:22:28.724Z,76.14
2023-10-03T01:25:00.947Z,76.21
2023-10-03T01:27:32.492Z,76.36
2023-10-03T01:30:04.096Z,76.42
2023-10-03T01:32:40.573Z,76.46
2023-10-03T01:35:14.927Z,76.61
2023-10-03T01:37:46.930Z,76.67
2023-10-03T01:40:18.745Z,76.58
2023-10-03T01:42:50.725Z,76.66
2023-10-03T01:45:23.601Z,76.82
2023-10-03T01:48:00.350Z,76.88
2023-10-03T01:50:35.044Z,76.89
2023-10-03T01:53:08.973Z,77.04
2023-10-03T01:55:40.971Z,76.97
2023-10-03T01:58:12.296Z,77.02
2023-10-03T02:00:43.629Z,77.09
2023-10-03T02:03:15.243Z,77.17
2023-10-03T02:05:47.534Z,76.94
2023-10-03T02:08:19.390Z,76.95
2023-10-03T02:10:52.363Z,77.01
2023-10-03T02:13:24.632Z,77.15
2023-10-03T02:15:57.583Z,77.20
2023-10-03T02:18:29.122Z,77.31
2023-10-03T02:21:02.973Z,77.36
2023-10-03T02:23:34.823Z,77.45
2023-10-03T02:26:13.142Z,77.46
2023-10-03T02:28:44.799Z,77.53
2023-10-03T02:31:16.714Z,77.47
2023-10-03T02:33:48.439Z,77.62
2023-10-03T02:36:19.952Z,77.72
2023-10-03T02:38:51.781Z,77.80
2023-10-03T02:41:24.177Z,77.83
2023-10-03T02:43:56.261Z,77.83
2023-10-03T02:46:28.177Z,77.80
2023-10-03T02:48:59.911Z,77.52
2023-10-03T02:51:31.496Z,77.69
2023-10-03T02:54:05.733Z,77.63
2023-10-03T02:56:37.369Z,77.69
2023-10-03T02:59:08.844Z,77.51
2023-10-03T03:01:40.153Z,77.64
2023-10-03T03:04:13.673Z,77.62
2023-10-03T03:06:47.325Z,77.59
2023-10-03T03:09:25.048Z,77.61
2023-10-03T03:12:01.664Z,77.67
2023-10-03T03:14:33.169Z,77.50
2023-10-03T03:17:14.775Z,77.59
2023-10-03T03:19:46.711Z,77.55
2023-10-03T03:22:22.536Z,77.43
2023-10-03T03:24:54.725Z,77.60
2023-10-03T03:27:28.041Z,77.56
2023-10-03T03:30:24.227Z,77.69
2023-10-03T03:32:59.296Z,77.73
2023-10-03T03:35:31.212Z,77.63
2023-10-03T03:38:06.317Z,77.49
2023-10-03T03:40:38.110Z,77.41
2023-10-03T03:43:09.661Z,77.22
2023-10-03T03:45:41.094Z,77.29
2023-10-03T03:48:12.638Z,77.21
2023-10-03T03:50:44.799Z,77.26
2023-10-03T03:53:17.425Z,77.21
2023-10-03T03:55:50.677Z,77.28
2023-10-03T03:58:24.223Z,77.17
2023-10-03T04:00:56.287Z,77.27
2023-10-03T04:03:30.361Z,77.28
2023-10-03T04:06:02.318Z,77.26
2023-10-03T04:08:34.193Z,77.19
2023-10-03T04:11:07.094Z,77.25
2023-10-03T04:13:50.720Z,77.53
2023-10-03T04:16:23.132Z,77.51
2023-10-03T04:18:54.514Z,77.60
2023-10-03T04:21:29.005Z,77.72
2023-10-03T04:24:00.927Z,77.75
2023-10-03T04:26:33.962Z,77.77
2023-10-03T04:29:05.741Z,77.64
2023-10-03T04:31:38.561Z,77.60
2023-10-03T04:34:09.081Z,77.91
2023-10-03T04:36:42.480Z,77.85
2023-10-03T04:39:14.045Z,77.98
2023-10-03T04:41:46.945Z,77.88
2023-10-03T04:44:19.132Z,77.97
2023-10-03T04:46:50.928Z,77.93
2023-10-03T04:49:22.273Z,77.89
2023-10-03T04:51:53.582Z,77.91
2023-10-03T04:54:24.865Z,77.87
2023-10-03T04:56:56.314Z,77.78
2023-10-03T04:59:27.679Z,77.79
2023-10-03T05:01:59.223Z,77.71
2023-10-03T05:04:30.627Z,77.72
2023-10-03T05:07:02.005Z,77.71
2023-10-03T05:09:34.318Z,77.65
2023-10-03T05:12:06.835Z,77.82
2023-10-03T05:14:42.449Z,77.71
2023-10-03T05:17:15.089Z,77.66
2023-10-03T05:19:46.705Z,77.58
2023-10-03T05:22:18.174Z,77.59
2023-10-03T05:24:51.032Z,77.66
2023-10-03T05:27:22.362Z,77.55
2023-10-03T05:29:53.754Z,77.69
2023-10-03T05:32:27.695Z,77.71
2023-10-03T05:34:59.628Z,77.80
2023-10-03T05:37:30.989Z,77.98
2023-10-03T05:40:12.516Z,78.19
2023-10-03T05:42:48.428Z,78.12
2023-10-03T05:45:21.353Z,78.16
2023-10-03T05:47:51.452Z,78.03
2023-10-03T05:50:25.144Z,77.98
2023-10-03T05:52:57.118Z,78.16
2023-10-03T05:55:28.729Z,78.04
2023-10-03T05:58:02.307Z,78.17
2023-10-03T06:00:35.102Z,78.17
2023-10-03T06:03:07.433Z,78.22
2023-10-03T06:05:38.945Z,78.12
2023-10-03T06:08:13.793Z,78.36
2023-10-03T06:10:45.172Z,78.50
2023-10-03T06:13:16.486Z,78.48
2023-10-03T06:15:48.009Z,78.58
2023-10-03T06:18:20.724Z,78.64
2023-10-03T06:20:52.425Z,78.38
2023-10-03T06:23:23.916Z,78.57
2023-10-03T06:25:55.288Z,78.61
2023-10-03T06:28:26.622Z,78.36
2023-10-03T06:30:58.280Z,78.53
2023-10-03T06:33:29.729Z,78.36
2023-10-03T06:36:01.143Z,78.30
2023-10-03T06:38:32.906Z,78.03
2023-10-03T06:41:05.265Z,78.05
2023-10-03T06:43:36.837Z,78.19
2023-10-03T06:46:08.105Z,78.42
2023-10-03T06:48:39.607Z,78.25
2023-10-03T06:51:10.937Z,78.37
2023-10-03T06:53:43.700Z,78.42
2023-10-03T06:56:15.225Z,78.48
2023-10-03T06:58:47.529Z,78.61
2023-10-03T07:01:19.648Z,78.68
2023-10-03T07:03:53.085Z,78.66
2023-10-03T07:06:25.275Z,78.63
2023-10-03T07:08:57.392Z,78.56
2023-10-03T07:11:29.625Z,78.65
2023-10-03T07:14:00.996Z,78.64
2023-10-03T07:16:39.831Z,78.67
2023-10-03T07:19:11.970Z,78.39
2023-10-03T07:21:43.587Z,78.63
2023-10-03T07:24:15.148Z,78.56
2023-10-03T07:26:46.832Z,78.48
2023-10-03T07:29:18.772Z,78.35
2023-10-03T07:31:50.290Z,78.36
2023-10-03T07:34:22.516Z,78.29
2023-10-03T07:36:53.841Z,78.20
2023-10-03T07:39:27.401Z,78.19
2023-10-03T07:41:58.815Z,78.08
2023-10-03T07:44:30.270Z,78.02
2023-10-03T07:47:01.931Z,77.92
2023-10-03T07:49:33.698Z,77.77
2023-10-03T07:52:06.062Z,77.70
2023-10-03T07:54:38.335Z,77.78
2023-10-03T07:57:11.266Z,77.59
2023-10-03T07:59:44.723Z,77.51
2023-10-03T08:02:16.401Z,77.48
2023-10-03T08:04:48.658Z,77.21
2023-10-03T08:07:23.303Z,77.35
2023-10-03T08:09:54.897Z,77.15
2023-10-03T08:12:26.363Z,77.30
2023-10-03T08:14:57.750Z,77.07
2023-10-03T08:17:32.461Z,77.07
2023-10-03T08:20:06.911Z,77.06
2023-10-03T08:22:43.159Z,76.96
2023-10-03T08:25:14.931Z,77.01
2023-10-03T08:27:47.895Z,77.11
2023-10-03T08:30:30.603Z,77.03
2023-10-03T08:33:06.339Z,76.81
2023-10-03T08:35:39.176Z,76.67
2023-10-03T08:38:15.772Z,76.27
2023-10-03T08:40:51.404Z,76.13
2023-10-03T08:43:27.049Z,76.01
2023-10-03T08:46:01.983Z,75.82
2023-10-03T08:48:36.308Z,75.66
2023-10-03T08:51:14.933Z,75.62
2023-10-03T08:53:49.209Z,75.59
2023-10-03T08:56:24.720Z,75.53
2023-10-03T08:58:57.510Z,75.47
2023-10-03T09:01:29.974Z,75.16
2023-10-03T09:04:06.215Z,75.03
2023-10-03T09:06:40.148Z,74.77
2023-10-03T09:09:14.712Z,74.33
2023-10-03T09:11:52.574Z,73.97
2023-10-03T09:14:24.152Z,73.57
2023-10-03T09:17:00.540Z,73.10
2023-10-03T09:19:46.792Z,73.04
2023-10-03T09:22:33.196Z,72.69
2023-10-03T09:25:08.476Z,72.53
2023-10-03T09:27:40.451Z,71.89
2023-10-03T09:30:24.041Z,71.78
2023-10-03T09:32:57.504Z,71.68
2023-10-03T09:35:29.694Z,71.55
2023-10-03T09:38:06.622Z,71.35
2023-10-03T09:40:51.959Z,71.04
2023-10-03T09:43:28.458Z,70.64
2023-10-03T09:46:01.603Z,70.43
2023-10-03T09:48:33.692Z,70.09
2023-10-03T09:51:07.670Z,69.89
2023-10-03T09:53:43.878Z,69.75
2023-10-03T09:56:15.440Z,69.25
2023-10-03T09:58:49.576Z,69.10
2023-10-03T10:01:21.128Z,68.55
2023-10-03T10:04:00.732Z,68.29
2023-10-03T10:06:39.876Z,68.20
2023-10-03T10:09:15.477Z,68.03
2023-10-03T10:12:14.587Z,67.86
2023-10-03T10:15:15.933Z,67.59
2023-10-03T10:17:52.643Z,67.12
2023-10-03T10:20:34.310Z,66.80
2023-10-03T10:23:21.485Z,66.96
2023-10-03T10:25:53.276Z,66.69
2023-10-03T10:28:28.461Z,66.40
2023-10-03T10:31:23.928Z,66.35
2023-10-03T10:34:38.363Z,66.28
2023-10-03T10:37:12.318Z,66.22
2023-10-03T10:40:18.643Z,66.09
2023-10-03T10:43:01.884Z,66.07
2023-10-03T10:45:40.810Z,65.72
2023-10-03T10:48:14.111Z,65.84
2023-10-03T10:51:14.138Z,65.91
2023-10-03T10:53:48.379Z,65.92
2023-10-03T10:56:20.559Z,65.95
2023-10-03T10:58:54.888Z,65.83
2023-10-03T11:01:27.928Z,65.81
2023-10-03T11:04:00.642Z,65.93
2023-10-03T11:06:32.512Z,66.02
2023-10-03T11:09:04.540Z,66.28
2023-10-03T11:11:42.511Z,66.15
2023-10-03T11:14:14.169Z,66.05
2023-10-03T11:16:48.385Z,66.00
2023-10-03T11:19:20.765Z,66.39
2023-10-03T11:21:52.835Z,66.28
2023-10-03T11:24:26.050Z,66.01
2023-10-03T11:26:59.374Z,65.58
2023-10-03T11:29:44.559Z,65.14
2023-10-03T11:32:27.646Z,64.78
2023-10-03T11:35:00.670Z,64.52
2023-10-03T11:37:38.096Z,64.33
2023-10-03T11:40:14.322Z,64.42
2023-10-03T11:42:51.154Z,64.04
2023-10-03T11:45:24.144Z,63.93
2023-10-03T11:48:05.879Z,63.68
2023-10-03T11:50:39.271Z,63.18
2023-10-03T11:53:12.521Z,63.41
2023-10-03T11:55:48.394Z,63.53
2023-10-03T11:58:20.076Z,63.11
2023-10-03T12:00:52.538Z,63.06
2023-10-03T12:03:24.265Z,63.07
2023-10-03T12:05:58.384Z,63.12
2023-10-03T12:08:30.943Z,62.90
2023-10-03T12:11:06.234Z,62.93
2023-10-03T12:13:38.161Z,63.15
2023-10-03T12:16:09.550Z,63.22
2023-10-03T12:18:40.990Z,63.53
2023-10-03T12:21:12.723Z,63.65
2023-10-03T12:23:46.490Z,63.61
2023-10-03T12:26:27.348Z,63.76
2023-10-03T12:29:01.631Z,64.66
2023-10-03T12:31:39.090Z,65.42
2023-10-03T12:34:11.660Z,66.38
2023-10-03T12:36:44.030Z,67.37
2023-10-03T12:39:19.520Z,67.95
2023-10-03T12:41:51.112Z,68.56
2023-10-03T12:44:22.469Z,69.14
2023-10-03T12:46:53.818Z,69.83
2023-10-03T12:49:25.124Z,70.18
2023-10-03T12:51:57.038Z,70.56
2023-10-03T12:54:28.383Z,71.04
2023-10-03T12:57:00.896Z,71.42
2023-10-03T12:59:32.711Z,71.88
2023-10-03T13:02:07.188Z,72.30
2023-10-03T13:04:38.606Z,72.50
2023-10-03T13:07:10.416Z,72.82
2023-10-03T13:09:42.138Z,73.27
2023-10-03T13:12:13.967Z,73.50
2023-10-03T13:14:45.608Z,73.52
2023-10-03T13:17:17.159Z,74.04
2023-10-03T13:19:49.283Z,74.10
2023-10-03T13:22:21.875Z,74.24
2023-10-03T13:24:53.439Z,74.34
2023-10-03T13:27:24.772Z,74.30
2023-10-03T13:29:56.121Z,74.13
2023-10-03T13:32:28.603Z,74.08
2023-10-03T13:34:58.751Z,74.21
2023-10-03T13:37:30.686Z,74.33
2023-10-03T13:40:06.446Z,74.47
2023-10-03T13:42:38.203Z,74.61
2023-10-03T13:45:14.111Z,74.91
2023-10-03T13:47:47.279Z,74.97
2023-10-03T13:50:19.675Z,75.30
2023-10-03T13:52:56.244Z,75.51
2023-10-03T13:55:30.654Z,75.46
2023-10-03T13:58:02.715Z,75.77
2023-10-03T14:00:36.902Z,76.00
2023-10-03T14:03:09.182Z,75.01
2023-10-03T14:05:40.807Z,74.62
2023-10-03T14:08:12.134Z,73.85
2023-10-03T14:10:45.964Z,73.80
2023-10-03T14:13:18.095Z,73.65
2023-10-03T14:15:49.942Z,73.93
2023-10-03T14:18:21.861Z,73.86
2023-10-03T14:20:53.939Z,73.87
2023-10-03T14:23:25.444Z,73.86
2023-10-03T14:25:56.744Z,73.79
2023-10-03T14:28:29.333Z,74.16
2023-10-03T14:31:01.761Z,74.01
2023-10-03T14:33:32.304Z,73.80
2023-10-03T14:36:04.387Z,74.13
2023-10-03T14:38:35.879Z,74.18
2023-10-03T14:41:07.269Z,74.34
2023-10-03T14:43:40.638Z,74.25
2023-10-03T14:46:12.732Z,74.53
2023-10-03T14:48:45.373Z,74.67
2023-10-03T14:51:16.936Z,74.61
2023-10-03T14:53:53.552Z,74.78
2023-10-03T14:56:26.707Z,74.65
2023-10-03T14:58:59.123Z,74.71
2023-10-03T15:01:30.484Z,74.58
2023-10-03T15:04:02.029Z,74.77
2023-10-03T15:06:33.747Z,74.75
2023-10-03T15:09:05.881Z,74.87
2023-10-03T15:11:37.888Z,74.69
2023-10-03T15:14:09.503Z,74.84
2023-10-03T15:16:40.862Z,74.45
2023-10-03T15:19:12.264Z,73.96
2023-10-03T15:21:43.583Z,73.39
2023-10-03T15:24:15.686Z,72.37
2023-10-03T15:26:47.445Z,72.21
2023-10-03T15:29:19.060Z,71.86
2023-10-03T15:31:51.191Z,71.89
2023-10-03T15:34:31.601Z,71.86
2023-10-03T15:37:09.548Z,71.04
2023-10-03T15:39:43.374Z,70.88
2023-10-03T15:42:15.334Z,70.36
2023-10-03T15:44:59.289Z,69.83
2023-10-03T15:47:38.595Z,69.86
2023-10-03T15:50:12.460Z,69.41
2023-10-03T15:52:45.548Z,69.36
2023-10-03T15:55:17.562Z,69.86
2023-10-03T15:57:49.696Z,69.29
2023-10-03T16:00:21.455Z,68.97
2023-10-03T16:02:54.450Z,69.03
2023-10-03T16:05:26.379Z,69.08
2023-10-03T16:07:57.725Z,69.23
2023-10-03T16:10:31.456Z,69.18
2023-10-03T16:13:03.009Z,69.22
2023-10-03T16:15:34.480Z,69.14
2023-10-03T16:18:10.244Z,69.34
2023-10-03T16:20:43.444Z,69.37
2023-10-03T16:23:14.838Z,69.33
2023-10-03T16:25:47.119Z,69.38
2023-10-03T16:28:18.708Z,69.53
2023-10-03T16:30:50.253Z,69.71
2023-10-03T16:33:22.372Z,69.99
2023-10-03T16:35:53.904Z,69.93
2023-10-03T16:38:25.802Z,69.74
2023-10-03T16:40:59.099Z,69.42
2023-10-03T16:43:30.985Z,69.32
2023-10-03T16:46:04.487Z,69.15
2023-10-03T16:48:35.851Z,68.97
2023-10-03T16:51:07.426Z,68.65
2023-10-03T16:53:38.886Z,68.72
2023-10-03T16:56:10.160Z,68.56
2023-10-03T16:58:41.960Z,68.19
2023-10-03T17:01:13.880Z,67.77
2023-10-03T17:03:45.731Z,67.28
2023-10-03T17:06:17.873Z,67.37
2023-10-03T17:08:50.052Z,67.63
2023-10-03T17:11:21.850Z,67.56
2023-10-03T17:13:54.875Z,67.46
2023-10-03T17:16:26.243Z,67.33
2023-10-03T17:18:57.711Z,67.30
2023-10-03T17:21:30.052Z,68.05
2023-10-03T17:24:00.547Z,68.42
2023-10-03T17:26:32.539Z,68.35
2023-10-03T17:29:05.833Z,68.02
2023-10-03T17:31:37.365Z,68.48
2023-10-03T17:34:10.983Z,68.87
2023-10-03T17:36:42.725Z,68.09
2023-10-03T17:39:16.691Z,67.78
2023-10-03T17:41:48.663Z,67.64
2023-10-03T17:44:49.042Z,67.38
2023-10-03T17:47:20.697Z,67.66
2023-10-03T17:49:57.672Z,67.57
2023-10-03T17:52:29.781Z,67.29
2023-10-03T17:55:06.994Z,67.34
2023-10-03T17:57:44.589Z,66.98
2023-10-03T18:00:18.325Z,67.51
2023-10-03T18:02:53.183Z,67.45
2023-10-03T18:05:27.008Z,68.15
2023-10-03T18:07:58.448Z,68.37
2023-10-03T18:10:33.902Z,67.67
2023-10-03T18:13:06.903Z,67.95
2023-10-03T18:15:44.401Z,67.83
2023-10-03T18:18:15.959Z,67.97
2023-10-03T18:20:48.859Z,68.01
2023-10-03T18:23:23.048Z,68.14
2023-10-03T18:25:55.891Z,68.42
2023-10-03T18:28:29.267Z,68.65
2023-10-03T18:31:00.786Z,68.83
2023-10-03T18:33:32.682Z,68.91
2023-10-03T18:36:04.534Z,69.06
2023-10-03T18:38:35.981Z,69.18
2023-10-03T18:41:09.369Z,69.09
2023-10-03T18:43:40.704Z,69.39
2023-10-03T18:46:12.865Z,69.50
2023-10-03T18:48:45.029Z,69.44
2023-10-03T18:51:17.447Z,68.57
2023-10-03T18:53:50.685Z,68.73
2023-10-03T18:56:23.653Z,68.51
2023-10-03T18:58:55.307Z,68.50
2023-10-03T19:04:17.241Z,68.08
2023-10-03T19:07:06.657Z,67.51
2023-10-03T19:09:52.273Z,67.15
2023-10-03T19:12:23.584Z,67.44
2023-10-03T19:15:10.844Z,67.56
2023-10-03T19:17:45.576Z,67.91
2023-10-03T19:20:22.699Z,67.78
2023-10-03T19:22:56.428Z,67.88
2023-10-03T19:25:34.128Z,67.62
2023-10-03T19:28:09.925Z,67.51
2023-10-03T19:30:46.133Z,67.55
2023-10-03T19:33:17.836Z,67.30
2023-10-03T19:35:49.819Z,67.23
2023-10-03T19:38:21.433Z,67.44
2023-10-03T19:40:54.693Z,67.47
2023-10-03T19:43:28.935Z,67.62
2023-10-03T19:46:03.694Z,67.60
2023-10-03T19:48:36.998Z,68.00
2023-10-03T19:51:12.332Z,68.11
2023-10-03T19:53:43.959Z,68.02
2023-10-03T19:56:18.018Z,68.39
2023-10-03T19:58:51.386Z,68.87
2023-10-03T20:01:26.772Z,69.15
2023-10-03T20:04:00.548Z,69.18
2023-10-03T20:06:32.935Z,69.43
2023-10-03T20:09:06.289Z,69.75
2023-10-03T20:11:37.993Z,69.85
2023-10-03T20:14:10.415Z,69.96
2023-10-03T20:16:43.187Z,70.03
2023-10-03T20:19:13.987Z,69.95
2023-10-03T20:21:45.004Z,69.96
2023-10-03T20:24:17.700Z,70.22
2023-10-03T20:26:49.502Z,70.25
2023-10-03T20:29:21.447Z,70.27
2023-10-03T20:31:53.139Z,70.56
2023-10-03T20:34:24.606Z,70.56
2023-10-03T20:36:58.811Z,70.52
2023-10-03T20:39:34.759Z,70.53
2023-10-03T20:42:07.663Z,70.88
2023-10-03T20:44:39.657Z,70.77
2023-10-03T20:47:11.470Z,70.81
2023-10-03T20:49:44.529Z,70.97
2023-10-03T20:52:16.302Z,70.97
2023-10-03T20:54:48.463Z,70.99
2023-10-03T20:57:20.360Z,71.37
2023-10-03T20:59:52.110Z,71.10
2023-10-03T21:02:24.525Z,71.10
2023-10-03T21:04:57.111Z,71.26
2023-10-03T21:07:28.891Z,71.29
2023-10-03T21:10:00.250Z,71.34
2023-10-03T21:12:31.676Z,71.30
2023-10-03T21:15:03.935Z,71.52
2023-10-03T21:17:35.483Z,71.93
2023-10-03T21:20:12.739Z,72.12
2023-10-03T21:22:45.998Z,72.28
2023-10-03T21:25:17.568Z,72.38
2023-10-03T21:27:49.134Z,72.50
2023-10-03T21:30:22.007Z,72.52
2023-10-03T21:32:53.454Z,72.59
2023-10-03T21:35:26.663Z,72.69
2023-10-03T21:37:59.093Z,72.56
2023-10-03T21:40:30.583Z,72.75
2023-10-03T21:43:02.558Z,72.79
2023-10-03T21:45:35.854Z,72.70
2023-10-03T21:48:10.054Z,72.81
2023-10-03T21:50:44.705Z,72.70
2023-10-03T21:53:16.051Z,72.86
2023-10-03T21:55:48.341Z,72.83
2023-10-03T21:58:19.804Z,72.89
2023-10-03T22:00:59.888Z,72.97
2023-10-03T22:03:32.996Z,73.00
2023-10-03T22:06:04.409Z,73.19
2023-10-03T22:08:35.822Z,73.21
2023-10-03T22:11:07.200Z,73.22
2023-10-03T22:13:39.006Z,73.05
2023-10-03T22:16:10.584Z,73.20
2023-10-03T22:18:41.989Z,73.22
2023-10-03T22:21:50.396Z,73.30
2023-10-03T22:24:41.711Z,73.31
2023-10-03T22:27:13.025Z,73.37
2023-10-03T22:29:44.594Z,73.41
2023-10-03T22:32:17.218Z,73.70
2023-10-03T22:34:48.555Z,73.77
2023-10-03T22:37:19.923Z,73.82
2023-10-03T22:39:52.044Z,73.76
2023-10-03T22:42:23.632Z,73.72
2023-10-03T22:44:55.115Z,73.72
2023-10-03T22:47:26.557Z,73.77
2023-10-03T22:49:58.746Z,73.88
2023-10-03T22:52:35.724Z,73.92
2023-10-03T22:55:09.815Z,74.13
2023-10-03T22:57:41.461Z,74.15
2023-10-03T23:00:16.054Z,74.31
2023-10-03T23:02:47.947Z,74.38
2023-10-03T23:05:20.126Z,74.42
2023-10-03T23:07:51.464Z,74.29
2023-10-03T23:10:24.540Z,74.38
2023-10-03T23:12:56.651Z,74.43
2023-10-03T23:15:29.448Z,74.28
2023-10-03T23:18:00.008Z,74.50
2023-10-03T23:20:31.633Z,74.54
2023-10-03T23:23:03.190Z,74.54
2023-10-03T23:25:36.180Z,74.61
2023-10-03T23:28:09.859Z,74.73
2023-10-03T23:30:44.105Z,74.57
2023-10-03T23:33:15.625Z,74.61
2023-10-03T23:35:48.123Z,74.68
2023-10-03T23:38:19.537Z,74.97
2023-10-03T23:40:50.980Z,75.15
2023-10-03T23:43:22.320Z,75.23
2023-10-03T23:45:53.915Z,75.31
2023-10-03T23:48:26.698Z,75.39
2023-10-03T23:50:58.190Z,75.51
2023-10-03T23:53:29.655Z,75.51
2023-10-03T23:56:00.982Z,75.42
2023-10-03T23:58:34.609Z,75.58
